PWSweather.com
Personal Weather Stations
Station Observations
PENICUIKWS
PenicuikGB

PenicuikGB

Lat: 55.830932, Lon: -3.224533000000065

Elevation: 166

Station Type: Fine Offset

http://weather.penicuik.org

High Low Average
Temperature 55.6°F13.1°C 35.1°F1.7°C 46.7°F8.2°C
Dew Point 51.5°F10.8°C 32.2°F0.1°C 42.6°F5.9°C
Winds 7.8 mph 12.6 kmh Calm Calm 4.0 mph SW6.4 kmh SW
Wind Gusts 18.3 mph29.5 kmh -- 6.0 mph9.7 kmh
Humidity 96% 70% 86%
Pressure 30.15 in1021.0 mb 29.80 in1009.1 mb -
Precipitation 0.13 in3.3 mm - -
Hour Temp Dew Point Humidity Winds Wind Gusts Pressure Precip Precip Rate Daily Precip Total
12:00 AM 35.4°F1.9°C 32.2°F0.1°C 88% 0.6 mph NW1.0 kmh NW 2.2 mph3.5 kmh 30.14 in1020.7 mb 0.00 in0.0 mm 0.00 in0.0 mm 0.00 in0.0 mm
12:15 AM 35.4°F1.9°C 32.2°F0.1°C 88% 0.3 mph W0.5 kmh W 0.7 mph1.1 kmh 30.14 in1020.7 mb 0.00 in0.0 mm 0.00 in0.0 mm 0.00 in0.0 mm
12:30 AM 35.6°F2.0°C 32.4°F0.2°C 88% 0.6 mph WSW1.0 kmh WSW 1.6 mph2.6 kmh 30.14 in1020.7 mb 0.00 in0.0 mm 0.00 in0.0 mm 0.00 in0.0 mm
12:45 AM 36.0°F2.2°C 32.8°F0.4°C 88% 0.5 mph W0.8 kmh W 2.2 mph3.5 kmh 30.15 in1021.0 mb 0.00 in0.0 mm 0.00 in0.0 mm 0.00 in0.0 mm
01:00 AM 36.3°F2.4°C 33.4°F0.8°C 89% 1.1 mph NW1.8 kmh NW 2.2 mph3.5 kmh 30.15 in1021.0 mb 0.00 in0.0 mm 0.00 in0.0 mm 0.00 in0.0 mm
01:15 AM 36.3°F2.4°C 33.4°F0.8°C 89% 0.8 mph NW1.3 kmh NW 1.6 mph2.6 kmh 30.15 in1021.0 mb 0.00 in0.0 mm 0.00 in0.0 mm 0.00 in0.0 mm
01:30 AM 36.1°F2.3°C 33.2°F0.7°C 89% 0.5 mph NW0.8 kmh NW 0.7 mph1.1 kmh 30.15 in1021.0 mb 0.00 in0.0 mm 0.00 in0.0 mm 0.00 in0.0 mm
01:45 AM 36.0°F2.2°C 33.0°F0.6°C 89% 0.7 mph NW1.1 kmh NW 2.2 mph3.5 kmh 30.14 in1020.7 mb 0.00 in0.0 mm 0.00 in0.0 mm 0.00 in0.0 mm
02:00 AM 35.8°F2.1°C 32.9°F0.5°C 89% 0.1 mph NNW0.2 kmh NNW 0.7 mph1.1 kmh 30.14 in1020.7 mb 0.00 in0.0 mm 0.00 in0.0 mm 0.00 in0.0 mm
02:15 AM 35.6°F2.0°C 32.7°F0.4°C 89% 0.2 mph NW0.3 kmh NW 1.6 mph2.6 kmh 30.14 in1020.7 mb 0.00 in0.0 mm 0.00 in0.0 mm 0.00 in0.0 mm
02:45 AM 35.1°F1.7°C 32.4°F0.2°C 90% 0.6 mph W1.0 kmh W 1.6 mph2.6 kmh 30.14 in1020.7 mb 0.00 in0.0 mm 0.00 in0.0 mm 0.00 in0.0 mm
03:00 AM 35.1°F1.7°C 32.7°F0.4°C 91% 0.3 mph WSW0.5 kmh WSW 1.6 mph2.6 kmh 30.13 in1020.3 mb 0.00 in0.0 mm 0.00 in0.0 mm 0.00 in0.0 mm
03:15 AM 36.0°F2.2°C 33.3°F0.7°C 90% 0.6 mph WSW1.0 kmh WSW 1.6 mph2.6 kmh 30.13 in1020.3 mb 0.00 in0.0 mm 0.00 in0.0 mm 0.00 in0.0 mm
03:30 AM 36.5°F2.5°C 33.9°F1.1°C 90% 0.5 mph NW0.8 kmh NW 1.6 mph2.6 kmh 30.13 in1020.3 mb 0.00 in0.0 mm 0.00 in0.0 mm 0.00 in0.0 mm
03:45 AM 36.7°F2.6°C 34.0°F1.1°C 90% 0.2 mph NW0.3 kmh NW 1.6 mph2.6 kmh 30.11 in1019.6 mb 0.00 in0.0 mm 0.00 in0.0 mm 0.00 in0.0 mm
04:00 AM 36.7°F2.6°C 34.3°F1.3°C 91% Calm Calm -- 30.10 in1019.3 mb 0.00 in0.0 mm 0.00 in0.0 mm 0.00 in0.0 mm
04:15 AM 36.7°F2.6°C 34.3°F1.3°C 91% 0.1 mph NW0.2 kmh NW 0.7 mph1.1 kmh 30.10 in1019.3 mb 0.00 in0.0 mm 0.00 in0.0 mm 0.00 in0.0 mm
04:30 AM 36.7°F2.6°C 34.3°F1.3°C 91% Calm Calm -- 30.10 in1019.3 mb 0.00 in0.0 mm 0.00 in0.0 mm 0.00 in0.0 mm
04:45 AM 36.7°F2.6°C 34.3°F1.3°C 91% 0.2 mph WSW0.3 kmh WSW 1.6 mph2.6 kmh 30.09 in1019.0 mb 0.00 in0.0 mm 0.00 in0.0 mm 0.00 in0.0 mm
05:00 AM 37.4°F3.0°C 36.1°F2.3°C 95% 0.1 mph WSW0.2 kmh WSW 1.6 mph2.6 kmh 30.09 in1019.0 mb 0.00 in0.0 mm 0.00 in0.0 mm 0.00 in0.0 mm
05:15 AM 38.5°F3.6°C 37.4°F3.0°C 96% 0.2 mph E0.3 kmh E 0.7 mph1.1 kmh 30.11 in1019.6 mb 0.00 in0.0 mm 0.00 in0.0 mm 0.00 in0.0 mm
05:30 AM 39.2°F4.0°C 37.9°F3.3°C 95% 0.7 mph SW1.1 kmh SW 2.2 mph3.5 kmh 30.10 in1019.3 mb 0.00 in0.0 mm 0.00 in0.0 mm 0.00 in0.0 mm
05:45 AM 39.9°F4.4°C 38.6°F3.7°C 95% 0.6 mph N1.0 kmh N 2.2 mph3.5 kmh 30.09 in1019.0 mb 0.00 in0.0 mm 0.00 in0.0 mm 0.00 in0.0 mm
06:00 AM 40.1°F4.5°C 39.1°F3.9°C 96% 0.6 mph WNW1.0 kmh WNW 1.6 mph2.6 kmh 30.10 in1019.3 mb 0.00 in0.0 mm 0.00 in0.0 mm 0.00 in0.0 mm
06:15 AM 40.3°F4.6°C 39.2°F4.0°C 96% 0.5 mph NE0.8 kmh NE 1.6 mph2.6 kmh 30.09 in1019.0 mb 0.00 in0.0 mm 0.00 in0.0 mm 0.00 in0.0 mm
06:30 AM 40.3°F4.6°C 39.0°F3.9°C 95% Calm Calm -- 30.09 in1019.0 mb 0.00 in0.0 mm 0.00 in0.0 mm 0.00 in0.0 mm
06:45 AM 40.6°F4.8°C 39.3°F4.1°C 95% 0.9 mph NW1.4 kmh NW 1.6 mph2.6 kmh 30.08 in1018.6 mb 0.00 in0.0 mm 0.00 in0.0 mm 0.00 in0.0 mm
07:00 AM 41.5°F5.3°C 39.9°F4.4°C 94% 1.3 mph NW2.1 kmh NW 3.1 mph5.0 kmh 30.07 in1018.3 mb 0.00 in0.0 mm 0.00 in0.0 mm 0.00 in0.0 mm
07:15 AM 42.3°F5.7°C 40.4°F4.7°C 93% 1.6 mph NW2.6 kmh NW 3.1 mph5.0 kmh 30.07 in1018.3 mb 0.00 in0.0 mm 0.00 in0.0 mm 0.00 in0.0 mm
07:45 AM 44.2°F6.8°C 40.6°F4.8°C 87% 2.8 mph ENE4.5 kmh ENE 4.5 mph7.2 kmh 30.06 in1017.9 mb 0.00 in0.0 mm 0.00 in0.0 mm 0.00 in0.0 mm
08:00 AM 45.1°F7.3°C 39.7°F4.3°C 81% 1.8 mph N2.9 kmh N 2.2 mph3.5 kmh 30.06 in1017.9 mb 0.00 in0.0 mm 0.00 in0.0 mm 0.00 in0.0 mm
08:15 AM 45.7°F7.6°C 38.6°F3.7°C 76% 3.9 mph SE6.3 kmh SE 5.4 mph8.7 kmh 30.06 in1017.9 mb 0.00 in0.0 mm 0.00 in0.0 mm 0.00 in0.0 mm
08:30 AM 46.2°F7.9°C 38.1°F3.4°C 73% 3.0 mph NNW4.8 kmh NNW 5.4 mph8.7 kmh 30.05 in1017.6 mb 0.00 in0.0 mm 0.00 in0.0 mm 0.00 in0.0 mm
08:45 AM 46.4°F8.0°C 37.9°F3.3°C 72% 4.1 mph ENE6.6 kmh ENE 7.6 mph12.2 kmh 30.04 in1017.3 mb 0.00 in0.0 mm 0.00 in0.0 mm 0.00 in0.0 mm
09:00 AM 46.8°F8.2°C 37.9°F3.3°C 71% 3.5 mph NW5.6 kmh NW 4.5 mph7.2 kmh 30.03 in1016.9 mb 0.00 in0.0 mm 0.00 in0.0 mm 0.00 in0.0 mm
09:30 AM 47.3°F8.5°C 38.7°F3.7°C 72% 4.3 mph W6.9 kmh W 5.4 mph8.7 kmh 30.03 in1016.9 mb 0.00 in0.0 mm 0.00 in0.0 mm 0.00 in0.0 mm
09:45 AM 47.3°F8.5°C 39.8°F4.3°C 75% 4.4 mph NE7.1 kmh NE 9.2 mph14.8 kmh 30.02 in1016.6 mb 0.00 in0.0 mm 0.00 in0.0 mm 0.00 in0.0 mm
10:00 AM 47.7°F8.7°C 40.8°F4.9°C 77% 4.7 mph NNW7.6 kmh NNW 8.3 mph13.4 kmh 30.01 in1016.3 mb 0.00 in0.0 mm 0.00 in0.0 mm 0.00 in0.0 mm
10:15 AM 49.1°F9.5°C 42.2°F5.7°C 77% 4.9 mph NE7.9 kmh NE 9.2 mph14.8 kmh 30.01 in1016.3 mb 0.00 in0.0 mm 0.00 in0.0 mm 0.00 in0.0 mm
10:30 AM 49.6°F9.8°C 42.4°F5.8°C 76% 4.2 mph WSW6.8 kmh WSW 6.9 mph11.1 kmh 30.00 in1015.9 mb 0.00 in0.0 mm 0.00 in0.0 mm 0.00 in0.0 mm
10:45 AM 49.8°F9.9°C 42.6°F5.9°C 76% 5.5 mph WSW8.9 kmh WSW 10.7 mph17.2 kmh 30.00 in1015.9 mb 0.00 in0.0 mm 0.00 in0.0 mm 0.00 in0.0 mm
11:00 AM 50.2°F10.1°C 42.2°F5.7°C 74% 4.7 mph SW7.6 kmh SW 6.9 mph11.1 kmh 29.99 in1015.6 mb 0.00 in0.0 mm 0.00 in0.0 mm 0.00 in0.0 mm
11:15 AM 50.2°F10.1°C 41.9°F5.5°C 73% 5.2 mph NNW8.4 kmh NNW 6.9 mph11.1 kmh 30.00 in1015.9 mb 0.00 in0.0 mm 0.00 in0.0 mm 0.00 in0.0 mm
11:30 AM 51.1°F10.6°C 42.7°F5.9°C 73% 3.8 mph SW6.1 kmh SW 7.6 mph12.2 kmh 29.98 in1015.2 mb 0.00 in0.0 mm 0.00 in0.0 mm 0.00 in0.0 mm
11:45 AM 51.6°F10.9°C 42.5°F5.8°C 71% 3.6 mph SW5.8 kmh SW 6.0 mph9.7 kmh 29.97 in1014.9 mb 0.00 in0.0 mm 0.00 in0.0 mm 0.00 in0.0 mm
12:00 PM 52.2°F11.2°C 42.7°F5.9°C 70% 4.6 mph NNW7.4 kmh NNW 6.0 mph9.7 kmh 29.96 in1014.6 mb 0.00 in0.0 mm 0.00 in0.0 mm 0.00 in0.0 mm
12:15 PM 52.7°F11.5°C 43.6°F6.4°C 71% 5.4 mph SW8.7 kmh SW 8.3 mph13.4 kmh 29.96 in1014.6 mb 0.00 in0.0 mm 0.00 in0.0 mm 0.00 in0.0 mm
12:30 PM 52.9°F11.6°C 43.4°F6.3°C 70% 7.8 mph NW12.6 kmh NW 18.3 mph29.5 kmh 29.95 in1014.2 mb 0.00 in0.0 mm 0.00 in0.0 mm 0.00 in0.0 mm
12:45 PM 52.5°F11.4°C 43.8°F6.6°C 72% 6.6 mph NW10.6 kmh NW 10.7 mph17.2 kmh 29.93 in1013.5 mb 0.00 in0.0 mm 0.00 in0.0 mm 0.00 in0.0 mm
01:00 PM 52.2°F11.2°C 44.5°F6.9°C 75% 7.1 mph NE11.4 kmh NE 12.1 mph19.5 kmh 29.93 in1013.5 mb 0.00 in0.0 mm 0.00 in0.0 mm 0.00 in0.0 mm
01:15 PM 51.1°F10.6°C 44.8°F7.1°C 79% 7.1 mph SSE11.4 kmh SSE 9.8 mph15.8 kmh 29.92 in1013.2 mb 0.01 in0.3 mm 0.04 in1.0 mm 0.01 in0.3 mm
01:45 PM 50.0°F10.0°C 45.7°F7.6°C 85% 6.5 mph WSW10.5 kmh WSW 9.8 mph15.8 kmh 29.91 in1012.9 mb 0.04 in1.0 mm 0.06 in1.5 mm 0.04 in1.0 mm
02:00 PM 50.0°F10.0°C 46.0°F7.8°C 86% 4.3 mph E6.9 kmh E 6.9 mph11.1 kmh 29.90 in1012.5 mb 0.05 in1.3 mm 0.01 in0.3 mm 0.05 in1.3 mm
02:15 PM 50.0°F10.0°C 46.3°F7.9°C 87% 7.5 mph WNW12.1 kmh WNW 14.5 mph23.3 kmh 29.89 in1012.2 mb 0.05 in1.3 mm 0.00 in0.0 mm 0.06 in1.5 mm
02:30 PM 50.0°F10.0°C 46.6°F8.1°C 88% 4.4 mph S7.1 kmh S 6.9 mph11.1 kmh 29.88 in1011.9 mb 0.04 in1.0 mm 0.00 in0.0 mm 0.06 in1.5 mm
02:45 PM 50.0°F10.0°C 46.9°F8.3°C 89% 5.0 mph NNW8.0 kmh NNW 9.2 mph14.8 kmh 29.88 in1011.9 mb 0.05 in1.3 mm 0.04 in1.0 mm 0.08 in2.0 mm
03:00 PM 50.0°F10.0°C 47.2°F8.4°C 90% 3.9 mph N6.3 kmh N 5.4 mph8.7 kmh 29.86 in1011.2 mb 0.05 in1.3 mm 0.00 in0.0 mm 0.09 in2.3 mm
03:30 PM 50.2°F10.1°C 47.4°F8.6°C 90% 5.1 mph N8.2 kmh N 8.3 mph13.4 kmh 29.85 in1010.8 mb 0.02 in0.5 mm 0.00 in0.0 mm 0.09 in2.3 mm
03:45 PM 50.2°F10.1°C 47.4°F8.6°C 90% 7.1 mph NW11.4 kmh NW 11.4 mph18.3 kmh 29.84 in1010.5 mb 0.02 in0.5 mm 0.00 in0.0 mm 0.11 in2.8 mm
04:00 PM 51.1°F10.6°C 48.3°F9.1°C 90% 6.3 mph NW10.1 kmh NW 9.2 mph14.8 kmh 29.84 in1010.5 mb 0.01 in0.3 mm 0.00 in0.0 mm 0.11 in2.8 mm
04:15 PM 51.1°F10.6°C 48.3°F9.1°C 90% 5.7 mph NW9.2 kmh NW 8.3 mph13.4 kmh 29.83 in1010.2 mb 0.01 in0.3 mm 0.00 in0.0 mm 0.11 in2.8 mm
04:30 PM 51.1°F10.6°C 48.5°F9.2°C 91% 4.5 mph S7.2 kmh S 8.3 mph13.4 kmh 29.82 in1009.8 mb 0.01 in0.3 mm 0.00 in0.0 mm 0.11 in2.8 mm
05:00 PM 51.1°F10.6°C 48.5°F9.2°C 91% 5.7 mph NNW9.2 kmh NNW 9.2 mph14.8 kmh 29.81 in1009.5 mb 0.01 in0.3 mm 0.00 in0.0 mm 0.12 in3.0 mm
05:15 PM 51.1°F10.6°C 48.5°F9.2°C 91% 4.3 mph N6.9 kmh N 6.0 mph9.7 kmh 29.81 in1009.5 mb 0.01 in0.3 mm 0.00 in0.0 mm 0.12 in3.0 mm
05:45 PM 51.4°F10.8°C 48.9°F9.4°C 91% 5.8 mph NW9.3 kmh NW 9.8 mph15.8 kmh 29.80 in1009.1 mb 0.00 in0.0 mm 0.00 in0.0 mm 0.12 in3.0 mm
06:00 PM 51.8°F11.0°C 49.3°F9.6°C 91% 6.7 mph NE10.8 kmh NE 9.8 mph15.8 kmh 29.80 in1009.1 mb 0.00 in0.0 mm 0.00 in0.0 mm 0.12 in3.0 mm
06:15 PM 52.3°F11.3°C 49.5°F9.7°C 90% 5.4 mph NNW8.7 kmh NNW 7.6 mph12.2 kmh 29.81 in1009.5 mb 0.00 in0.0 mm 0.00 in0.0 mm 0.12 in3.0 mm
06:30 PM 52.7°F11.5°C 49.9°F9.9°C 90% 6.5 mph SSE10.5 kmh SSE 11.4 mph18.3 kmh 29.82 in1009.8 mb 0.00 in0.0 mm 0.00 in0.0 mm 0.12 in3.0 mm
06:45 PM 52.7°F11.5°C 49.9°F9.9°C 90% 4.1 mph W6.6 kmh W 7.6 mph12.2 kmh 29.81 in1009.5 mb 0.00 in0.0 mm 0.00 in0.0 mm 0.12 in3.0 mm
07:00 PM 53.1°F11.7°C 50.2°F10.1°C 90% 5.8 mph NW9.3 kmh NW 8.3 mph13.4 kmh 29.82 in1009.8 mb 0.01 in0.3 mm 0.01 in0.3 mm 0.13 in3.3 mm
07:15 PM 53.4°F11.9°C 50.6°F10.3°C 90% 4.9 mph SSE7.9 kmh SSE 9.2 mph14.8 kmh 29.82 in1009.8 mb 0.01 in0.3 mm 0.00 in0.0 mm 0.13 in3.3 mm
07:30 PM 53.6°F12.0°C 50.4°F10.2°C 89% 5.4 mph E8.7 kmh E 8.3 mph13.4 kmh 29.80 in1009.1 mb 0.01 in0.3 mm 0.00 in0.0 mm 0.13 in3.3 mm
08:00 PM 54.0°F12.2°C 50.5°F10.3°C 88% 5.0 mph WSW8.0 kmh WSW 6.9 mph11.1 kmh 29.80 in1009.1 mb 0.00 in0.0 mm 0.00 in0.0 mm 0.13 in3.3 mm
08:15 PM 54.3°F12.4°C 50.5°F10.3°C 87% 7.4 mph S11.9 kmh S 12.1 mph19.5 kmh 29.81 in1009.5 mb 0.00 in0.0 mm 0.00 in0.0 mm 0.13 in3.3 mm
08:30 PM 54.1°F12.3°C 50.4°F10.2°C 87% 3.2 mph W5.1 kmh W 6.9 mph11.1 kmh 29.81 in1009.5 mb 0.00 in0.0 mm 0.00 in0.0 mm 0.13 in3.3 mm
08:45 PM 54.5°F12.5°C 50.7°F10.4°C 87% 5.9 mph N9.5 kmh N 9.8 mph15.8 kmh 29.81 in1009.5 mb 0.00 in0.0 mm 0.00 in0.0 mm 0.13 in3.3 mm
09:00 PM 54.5°F12.5°C 50.7°F10.4°C 87% 5.1 mph NW8.2 kmh NW 7.6 mph12.2 kmh 29.81 in1009.5 mb 0.00 in0.0 mm 0.00 in0.0 mm 0.13 in3.3 mm
09:15 PM 54.7°F12.6°C 50.9°F10.5°C 87% 5.8 mph NW9.3 kmh NW 9.8 mph15.8 kmh 29.81 in1009.5 mb 0.00 in0.0 mm 0.00 in0.0 mm 0.13 in3.3 mm
09:45 PM 54.5°F12.5°C 50.7°F10.4°C 87% 4.7 mph SW7.6 kmh SW 6.9 mph11.1 kmh 29.81 in1009.5 mb 0.00 in0.0 mm 0.00 in0.0 mm 0.13 in3.3 mm
10:00 PM 54.9°F12.7°C 51.1°F10.6°C 87% 4.8 mph SE7.7 kmh SE 7.6 mph12.2 kmh 29.80 in1009.1 mb 0.00 in0.0 mm 0.00 in0.0 mm 0.13 in3.3 mm
10:15 PM 55.0°F12.8°C 51.2°F10.7°C 87% 6.2 mph N10.0 kmh N 10.7 mph17.2 kmh 29.80 in1009.1 mb 0.00 in0.0 mm 0.00 in0.0 mm 0.13 in3.3 mm
10:30 PM 55.2°F12.9°C 51.1°F10.6°C 86% 6.5 mph NW10.5 kmh NW 10.7 mph17.2 kmh 29.81 in1009.5 mb 0.00 in0.0 mm 0.00 in0.0 mm 0.13 in3.3 mm
10:45 PM 55.4°F13.0°C 51.3°F10.7°C 86% 4.2 mph E6.8 kmh E 6.9 mph11.1 kmh 29.80 in1009.1 mb 0.00 in0.0 mm 0.00 in0.0 mm 0.13 in3.3 mm
11:00 PM 55.2°F12.9°C 51.4°F10.8°C 87% 5.6 mph WSW9.0 kmh WSW 8.3 mph13.4 kmh 29.80 in1009.1 mb 0.01 in0.3 mm 0.01 in0.3 mm 0.08 in2.0 mm
11:15 PM 55.2°F12.9°C 51.4°F10.8°C 87% 5.9 mph SE9.5 kmh SE 12.1 mph19.5 kmh 29.80 in1009.1 mb 0.01 in0.3 mm 0.00 in0.0 mm 0.08 in2.0 mm
11:30 PM 55.2°F12.9°C 51.4°F10.8°C 87% 6.9 mph W11.1 kmh W 13.6 mph21.9 kmh 29.80 in1009.1 mb 0.01 in0.3 mm 0.00 in0.0 mm 0.08 in2.0 mm
11:45 PM 55.6°F13.1°C 51.5°F10.8°C 86% 5.6 mph NNW9.0 kmh NNW 10.7 mph17.2 kmh 29.80 in1009.1 mb 0.01 in0.3 mm 0.00 in0.0 mm 0.08 in2.0 mm